sensor_id;sensor_type;location;lat;lon;timestamp;P1;durP1;ratioP1;P2;durP2;ratioP2
30235;SDS011;17048;53.092;8.746;2023-08-06T00:01:33;4.50;;;3.00;;
30235;SDS011;17048;53.092;8.746;2023-08-06T00:04:00;6.75;;;3.28;;
30235;SDS011;17048;53.092;8.746;2023-08-06T00:06:27;4.57;;;2.97;;
30235;SDS011;17048;53.092;8.746;2023-08-06T00:08:54;6.00;;;3.75;;
30235;SDS011;17048;53.092;8.746;2023-08-06T00:11:23;4.88;;;3.58;;
30235;SDS011;17048;53.092;8.746;2023-08-06T00:13:49;4.65;;;3.42;;
30235;SDS011;17048;53.092;8.746;2023-08-06T00:16:23;7.15;;;4.00;;
30235;SDS011;17048;53.092;8.746;2023-08-06T00:18:50;4.68;;;3.42;;
30235;SDS011;17048;53.092;8.746;2023-08-06T00:21:23;5.57;;;3.20;;
30235;SDS011;17048;53.092;8.746;2023-08-06T00:23:50;5.03;;;3.63;;
30235;SDS011;17048;53.092;8.746;2023-08-06T00:26:20;5.28;;;3.40;;
30235;SDS011;17048;53.092;8.746;2023-08-06T00:28:47;4.78;;;3.50;;
30235;SDS011;17048;53.092;8.746;2023-08-06T00:31:19;4.35;;;3.15;;
30235;SDS011;17048;53.092;8.746;2023-08-06T00:33:50;6.85;;;3.22;;
30235;SDS011;17048;53.092;8.746;2023-08-06T00:36:17;4.40;;;3.42;;
30235;SDS011;17048;53.092;8.746;2023-08-06T00:38:47;7.57;;;3.80;;
30235;SDS011;17048;53.092;8.746;2023-08-06T00:41:13;5.10;;;2.95;;
30235;SDS011;17048;53.092;8.746;2023-08-06T00:43:43;5.22;;;3.65;;
30235;SDS011;17048;53.092;8.746;2023-08-06T00:46:10;4.55;;;3.45;;
30235;SDS011;17048;53.092;8.746;2023-08-06T00:48:37;5.38;;;3.53;;
30235;SDS011;17048;53.092;8.746;2023-08-06T00:51:04;3.30;;;2.88;;
30235;SDS011;17048;53.092;8.746;2023-08-06T00:53:31;5.53;;;4.20;;
30235;SDS011;17048;53.092;8.746;2023-08-06T00:56:01;4.38;;;3.35;;
30235;SDS011;17048;53.092;8.746;2023-08-06T00:58:28;5.30;;;3.85;;
30235;SDS011;17048;53.092;8.746;2023-08-06T01:00:55;7.80;;;3.58;;
30235;SDS011;17048;53.092;8.746;2023-08-06T01:03:22;6.05;;;3.72;;
30235;SDS011;17048;53.092;8.746;2023-08-06T01:05:49;5.72;;;4.00;;
30235;SDS011;17048;53.092;8.746;2023-08-06T01:08:28;9.38;;;4.78;;
30235;SDS011;17048;53.092;8.746;2023-08-06T01:13:59;12.32;;;6.55;;
30235;SDS011;17048;53.092;8.746;2023-08-06T01:16:34;13.52;;;5.22;;
30235;SDS011;17048;53.092;8.746;2023-08-06T01:19:01;9.90;;;5.72;;
30235;SDS011;17048;53.092;8.746;2023-08-06T01:21:31;9.18;;;5.28;;
30235;SDS011;17048;53.092;8.746;2023-08-06T01:24:01;9.32;;;5.07;;
30235;SDS011;17048;53.092;8.746;2023-08-06T01:26:39;11.70;;;5.47;;
30235;SDS011;17048;53.092;8.746;2023-08-06T01:31:39;6.85;;;4.63;;
30235;SDS011;17048;53.092;8.746;2023-08-06T01:34:13;10.10;;;5.70;;
30235;SDS011;17048;53.092;8.746;2023-08-06T01:36:44;9.82;;;5.05;;
30235;SDS011;17048;53.092;8.746;2023-08-06T01:39:15;10.18;;;5.07;;
30235;SDS011;17048;53.092;8.746;2023-08-06T01:41:42;11.60;;;4.65;;
30235;SDS011;17048;53.092;8.746;2023-08-06T01:44:08;8.70;;;3.92;;
30235;SDS011;17048;53.092;8.746;2023-08-06T01:46:36;5.78;;;3.63;;
30235;SDS011;17048;53.092;8.746;2023-08-06T01:49:03;5.00;;;3.22;;
30235;SDS011;17048;53.092;8.746;2023-08-06T01:51:33;6.90;;;3.97;;
30235;SDS011;17048;53.092;8.746;2023-08-06T01:54:03;5.85;;;3.88;;
30235;SDS011;17048;53.092;8.746;2023-08-06T01:56:30;10.25;;;4.40;;
30235;SDS011;17048;53.092;8.746;2023-08-06T01:58:57;8.70;;;4.10;;
30235;SDS011;17048;53.092;8.746;2023-08-06T02:01:24;13.98;;;4.05;;
30235;SDS011;17048;53.092;8.746;2023-08-06T02:03:53;5.65;;;3.80;;
30235;SDS011;17048;53.092;8.746;2023-08-06T02:06:27;6.82;;;4.03;;
30235;SDS011;17048;53.092;8.746;2023-08-06T02:08:54;5.78;;;3.60;;
30235;SDS011;17048;53.092;8.746;2023-08-06T02:11:26;12.02;;;4.75;;
30235;SDS011;17048;53.092;8.746;2023-08-06T02:13:53;7.40;;;4.32;;
30235;SDS011;17048;53.092;8.746;2023-08-06T02:16:21;7.07;;;4.55;;
30235;SDS011;17048;53.092;8.746;2023-08-06T02:18:48;5.85;;;3.70;;
30235;SDS011;17048;53.092;8.746;2023-08-06T02:21:17;5.85;;;4.13;;
30235;SDS011;17048;53.092;8.746;2023-08-06T02:24:00;7.28;;;4.78;;
30235;SDS011;17048;53.092;8.746;2023-08-06T02:26:27;5.60;;;3.83;;
30235;SDS011;17048;53.092;8.746;2023-08-06T02:28:54;8.50;;;4.50;;
30235;SDS011;17048;53.092;8.746;2023-08-06T02:31:21;6.30;;;4.45;;
30235;SDS011;17048;53.092;8.746;2023-08-06T02:33:49;7.13;;;4.85;;
30235;SDS011;17048;53.092;8.746;2023-08-06T02:36:16;8.48;;;4.82;;
30235;SDS011;17048;53.092;8.746;2023-08-06T02:38:43;6.78;;;4.97;;
30235;SDS011;17048;53.092;8.746;2023-08-06T02:41:11;12.05;;;5.75;;
30235;SDS011;17048;53.092;8.746;2023-08-06T02:43:38;12.25;;;5.50;;
30235;SDS011;17048;53.092;8.746;2023-08-06T02:46:09;8.75;;;5.15;;
30235;SDS011;17048;53.092;8.746;2023-08-06T02:48:39;9.30;;;5.55;;
30235;SDS011;17048;53.092;8.746;2023-08-06T02:51:06;8.02;;;5.07;;
30235;SDS011;17048;53.092;8.746;2023-08-06T02:53:33;7.60;;;5.88;;
30235;SDS011;17048;53.092;8.746;2023-08-06T02:55:59;9.35;;;6.85;;
30235;SDS011;17048;53.092;8.746;2023-08-06T02:58:26;11.77;;;6.82;;
30235;SDS011;17048;53.092;8.746;2023-08-06T03:01:03;10.48;;;7.55;;
30235;SDS011;17048;53.092;8.746;2023-08-06T03:03:31;9.85;;;7.03;;
30235;SDS011;17048;53.092;8.746;2023-08-06T03:05:58;13.23;;;8.55;;
30235;SDS011;17048;53.092;8.746;2023-08-06T03:08:25;14.82;;;7.57;;
30235;SDS011;17048;53.092;8.746;2023-08-06T03:10:52;8.73;;;7.05;;
30235;SDS011;17048;53.092;8.746;2023-08-06T03:13:19;7.88;;;6.43;;
30235;SDS011;17048;53.092;8.746;2023-08-06T03:15:54;10.15;;;7.28;;
30235;SDS011;17048;53.092;8.746;2023-08-06T03:18:21;6.95;;;5.75;;
30235;SDS011;17048;53.092;8.746;2023-08-06T03:20:49;10.77;;;6.22;;
30235;SDS011;17048;53.092;8.746;2023-08-06T03:23:16;9.40;;;6.10;;
30235;SDS011;17048;53.092;8.746;2023-08-06T03:25:43;8.48;;;5.80;;
30235;SDS011;17048;53.092;8.746;2023-08-06T03:28:11;12.15;;;7.07;;
30235;SDS011;17048;53.092;8.746;2023-08-06T03:30:38;11.48;;;7.85;;
30235;SDS011;17048;53.092;8.746;2023-08-06T03:33:05;12.40;;;8.20;;
30235;SDS011;17048;53.092;8.746;2023-08-06T03:35:32;11.32;;;8.30;;
30235;SDS011;17048;53.092;8.746;2023-08-06T03:37:59;13.57;;;8.15;;
30235;SDS011;17048;53.092;8.746;2023-08-06T03:40:29;11.70;;;8.60;;
30235;SDS011;17048;53.092;8.746;2023-08-06T03:42:56;10.55;;;7.70;;
30235;SDS011;17048;53.092;8.746;2023-08-06T03:45:26;12.65;;;8.85;;
30235;SDS011;17048;53.092;8.746;2023-08-06T03:47:53;10.73;;;7.47;;
30235;SDS011;17048;53.092;8.746;2023-08-06T03:50:23;8.48;;;6.53;;
30235;SDS011;17048;53.092;8.746;2023-08-06T03:52:50;11.15;;;6.95;;
30235;SDS011;17048;53.092;8.746;2023-08-06T03:55:19;11.38;;;6.75;;
30235;SDS011;17048;53.092;8.746;2023-08-06T03:57:46;9.05;;;6.53;;
30235;SDS011;17048;53.092;8.746;2023-08-06T04:00:13;10.82;;;6.68;;
30235;SDS011;17048;53.092;8.746;2023-08-06T04:02:54;8.90;;;6.47;;
30235;SDS011;17048;53.092;8.746;2023-08-06T04:05:30;8.32;;;6.22;;
30235;SDS011;17048;53.092;8.746;2023-08-06T04:07:57;14.52;;;6.45;;
30235;SDS011;17048;53.092;8.746;2023-08-06T04:13:19;11.65;;;7.47;;
30235;SDS011;17048;53.092;8.746;2023-08-06T04:15:47;13.38;;;8.02;;
30235;SDS011;17048;53.092;8.746;2023-08-06T04:18:14;11.57;;;7.22;;
30235;SDS011;17048;53.092;8.746;2023-08-06T04:20:46;11.25;;;7.45;;
30235;SDS011;17048;53.092;8.746;2023-08-06T04:23:14;10.90;;;7.30;;
30235;SDS011;17048;53.092;8.746;2023-08-06T04:25:41;9.73;;;6.80;;
30235;SDS011;17048;53.092;8.746;2023-08-06T04:28:08;9.68;;;7.22;;
30235;SDS011;17048;53.092;8.746;2023-08-06T04:30:36;9.00;;;6.60;;
30235;SDS011;17048;53.092;8.746;2023-08-06T04:33:04;10.52;;;7.82;;
30235;SDS011;17048;53.092;8.746;2023-08-06T04:35:31;12.23;;;7.00;;
30235;SDS011;17048;53.092;8.746;2023-08-06T04:37:58;9.43;;;7.22;;
30235;SDS011;17048;53.092;8.746;2023-08-06T04:40:26;10.38;;;6.40;;
30235;SDS011;17048;53.092;8.746;2023-08-06T04:42:57;10.98;;;8.15;;
30235;SDS011;17048;53.092;8.746;2023-08-06T04:45:23;13.77;;;7.72;;
30235;SDS011;17048;53.092;8.746;2023-08-06T04:47:51;10.00;;;7.50;;
30235;SDS011;17048;53.092;8.746;2023-08-06T04:50:19;9.63;;;7.78;;
30235;SDS011;17048;53.092;8.746;2023-08-06T04:52:46;9.55;;;7.18;;
30235;SDS011;17048;53.092;8.746;2023-08-06T04:55:13;11.65;;;8.00;;
30235;SDS011;17048;53.092;8.746;2023-08-06T04:57:40;13.85;;;7.95;;
30235;SDS011;17048;53.092;8.746;2023-08-06T05:00:08;10.50;;;7.20;;
30235;SDS011;17048;53.092;8.746;2023-08-06T05:02:35;10.88;;;7.70;;
30235;SDS011;17048;53.092;8.746;2023-08-06T05:05:05;12.30;;;7.38;;
30235;SDS011;17048;53.092;8.746;2023-08-06T05:07:32;13.75;;;8.57;;
30235;SDS011;17048;53.092;8.746;2023-08-06T05:09:59;11.75;;;8.82;;
30235;SDS011;17048;53.092;8.746;2023-08-06T05:12:27;14.02;;;8.43;;
30235;SDS011;17048;53.092;8.746;2023-08-06T05:17:22;13.45;;;8.55;;
30235;SDS011;17048;53.092;8.746;2023-08-06T05:19:52;12.70;;;7.82;;
30235;SDS011;17048;53.092;8.746;2023-08-06T05:22:20;11.27;;;8.52;;
30235;SDS011;17048;53.092;8.746;2023-08-06T05:25:01;11.70;;;8.50;;
30235;SDS011;17048;53.092;8.746;2023-08-06T05:27:28;10.68;;;8.13;;
30235;SDS011;17048;53.092;8.746;2023-08-06T05:32:47;13.50;;;8.75;;
30235;SDS011;17048;53.092;8.746;2023-08-06T05:35:14;15.82;;;9.43;;
30235;SDS011;17048;53.092;8.746;2023-08-06T05:37:42;13.13;;;8.75;;
30235;SDS011;17048;53.092;8.746;2023-08-06T05:40:09;14.40;;;8.40;;
30235;SDS011;17048;53.092;8.746;2023-08-06T05:42:39;13.63;;;9.30;;
30235;SDS011;17048;53.092;8.746;2023-08-06T05:45:07;12.73;;;8.25;;
30235;SDS011;17048;53.092;8.746;2023-08-06T05:47:34;13.02;;;8.38;;
30235;SDS011;17048;53.092;8.746;2023-08-06T05:50:01;10.75;;;8.25;;
30235;SDS011;17048;53.092;8.746;2023-08-06T05:52:28;11.98;;;8.10;;
30235;SDS011;17048;53.092;8.746;2023-08-06T05:54:55;14.13;;;7.90;;
30235;SDS011;17048;53.092;8.746;2023-08-06T05:57:22;9.25;;;7.70;;
30235;SDS011;17048;53.092;8.746;2023-08-06T05:59:49;9.63;;;6.53;;
30235;SDS011;17048;53.092;8.746;2023-08-06T06:02:16;10.68;;;7.20;;
30235;SDS011;17048;53.092;8.746;2023-08-06T06:04:48;12.13;;;8.40;;
30235;SDS011;17048;53.092;8.746;2023-08-06T06:07:20;9.25;;;6.32;;
30235;SDS011;17048;53.092;8.746;2023-08-06T06:10:03;8.88;;;6.57;;
30235;SDS011;17048;53.092;8.746;2023-08-06T06:12:37;10.70;;;6.50;;
30235;SDS011;17048;53.092;8.746;2023-08-06T06:15:05;10.23;;;5.80;;
30235;SDS011;17048;53.092;8.746;2023-08-06T06:17:35;10.43;;;6.32;;
30235;SDS011;17048;53.092;8.746;2023-08-06T06:20:18;12.80;;;5.88;;
30235;SDS011;17048;53.092;8.746;2023-08-06T06:22:45;12.80;;;5.38;;
30235;SDS011;17048;53.092;8.746;2023-08-06T06:25:12;12.80;;;5.28;;
30235;SDS011;17048;53.092;8.746;2023-08-06T06:27:44;7.78;;;5.07;;
30235;SDS011;17048;53.092;8.746;2023-08-06T06:32:59;7.75;;;5.30;;
30235;SDS011;17048;53.092;8.746;2023-08-06T06:35:37;8.00;;;4.88;;
30235;SDS011;17048;53.092;8.746;2023-08-06T06:38:17;7.10;;;5.03;;
30235;SDS011;17048;53.092;8.746;2023-08-06T06:43:44;6.20;;;4.85;;
30235;SDS011;17048;53.092;8.746;2023-08-06T06:46:15;7.20;;;4.53;;
30235;SDS011;17048;53.092;8.746;2023-08-06T06:48:45;7.47;;;4.78;;
30235;SDS011;17048;53.092;8.746;2023-08-06T06:51:16;5.70;;;4.18;;
30235;SDS011;17048;53.092;8.746;2023-08-06T06:53:46;9.68;;;4.95;;
30235;SDS011;17048;53.092;8.746;2023-08-06T06:56:14;7.35;;;5.10;;
30235;SDS011;17048;53.092;8.746;2023-08-06T06:58:45;9.48;;;5.13;;
30235;SDS011;17048;53.092;8.746;2023-08-06T07:01:12;6.05;;;4.80;;
30235;SDS011;17048;53.092;8.746;2023-08-06T07:03:40;5.00;;;4.43;;
30235;SDS011;17048;53.092;8.746;2023-08-06T07:06:25;6.45;;;4.80;;
30235;SDS011;17048;53.092;8.746;2023-08-06T07:08:53;6.20;;;4.80;;
30235;SDS011;17048;53.092;8.746;2023-08-06T07:11:24;5.95;;;4.80;;
30235;SDS011;17048;53.092;8.746;2023-08-06T07:13:57;8.98;;;4.72;;
30235;SDS011;17048;53.092;8.746;2023-08-06T07:16:36;4.93;;;3.72;;
30235;SDS011;17048;53.092;8.746;2023-08-06T07:19:07;4.35;;;3.95;;
30235;SDS011;17048;53.092;8.746;2023-08-06T07:21:39;5.32;;;4.03;;
30235;SDS011;17048;53.092;8.746;2023-08-06T07:24:11;8.38;;;4.18;;
30235;SDS011;17048;53.092;8.746;2023-08-06T07:26:52;5.68;;;3.80;;
30235;SDS011;17048;53.092;8.746;2023-08-06T07:29:39;5.13;;;3.35;;
30235;SDS011;17048;53.092;8.746;2023-08-06T07:32:10;4.47;;;3.55;;
30235;SDS011;17048;53.092;8.746;2023-08-06T07:34:46;4.47;;;3.17;;
30235;SDS011;17048;53.092;8.746;2023-08-06T07:37:29;4.97;;;3.47;;
30235;SDS011;17048;53.092;8.746;2023-08-06T07:40:03;3.90;;;3.10;;
30235;SDS011;17048;53.092;8.746;2023-08-06T07:42:41;4.07;;;3.30;;
30235;SDS011;17048;53.092;8.746;2023-08-06T07:45:08;3.92;;;3.00;;
30235;SDS011;17048;53.092;8.746;2023-08-06T07:47:47;4.00;;;2.83;;
30235;SDS011;17048;53.092;8.746;2023-08-06T07:50:18;4.13;;;3.30;;
30235;SDS011;17048;53.092;8.746;2023-08-06T07:52:47;5.30;;;3.50;;
30235;SDS011;17048;53.092;8.746;2023-08-06T07:55:14;3.60;;;2.92;;
30235;SDS011;17048;53.092;8.746;2023-08-06T07:57:42;4.15;;;2.65;;
30235;SDS011;17048;53.092;8.746;2023-08-06T08:00:10;4.75;;;3.35;;
30235;SDS011;17048;53.092;8.746;2023-08-06T08:02:38;3.17;;;2.75;;
30235;SDS011;17048;53.092;8.746;2023-08-06T08:05:22;4.87;;;2.87;;
30235;SDS011;17048;53.092;8.746;2023-08-06T08:07:51;4.00;;;2.65;;
30235;SDS011;17048;53.092;8.746;2023-08-06T08:10:20;4.40;;;2.95;;
30235;SDS011;17048;53.092;8.746;2023-08-06T08:13:01;3.60;;;2.72;;
30235;SDS011;17048;53.092;8.746;2023-08-06T08:15:33;3.72;;;2.83;;
30235;SDS011;17048;53.092;8.746;2023-08-06T08:18:02;4.07;;;2.80;;
30235;SDS011;17048;53.092;8.746;2023-08-06T08:20:31;4.97;;;3.90;;
30235;SDS011;17048;53.092;8.746;2023-08-06T08:26:01;7.43;;;3.10;;
30235;SDS011;17048;53.092;8.746;2023-08-06T08:28:29;8.02;;;3.33;;
30235;SDS011;17048;53.092;8.746;2023-08-06T08:30:59;6.00;;;4.18;;
30235;SDS011;17048;53.092;8.746;2023-08-06T08:35:58;4.78;;;3.17;;
30235;SDS011;17048;53.092;8.746;2023-08-06T08:38:25;5.20;;;2.83;;
30235;SDS011;17048;53.092;8.746;2023-08-06T08:41:05;6.07;;;3.70;;
30235;SDS011;17048;53.092;8.746;2023-08-06T08:43:33;7.78;;;3.50;;
30235;SDS011;17048;53.092;8.746;2023-08-06T08:46:03;6.93;;;4.32;;
30235;SDS011;17048;53.092;8.746;2023-08-06T08:48:48;10.52;;;3.67;;
30235;SDS011;17048;53.092;8.746;2023-08-06T08:51:17;6.72;;;4.15;;
30235;SDS011;17048;53.092;8.746;2023-08-06T08:54:03;5.05;;;3.35;;
30235;SDS011;17048;53.092;8.746;2023-08-06T08:56:36;6.93;;;3.13;;
30235;SDS011;17048;53.092;8.746;2023-08-06T08:59:15;5.35;;;3.08;;
30235;SDS011;17048;53.092;8.746;2023-08-06T09:01:54;5.13;;;3.53;;
30235;SDS011;17048;53.092;8.746;2023-08-06T09:04:25;6.43;;;2.83;;
30235;SDS011;17048;53.092;8.746;2023-08-06T09:06:56;3.47;;;2.63;;
30235;SDS011;17048;53.092;8.746;2023-08-06T09:09:26;6.65;;;3.38;;
30235;SDS011;17048;53.092;8.746;2023-08-06T09:12:01;3.73;;;2.77;;
30235;SDS011;17048;53.092;8.746;2023-08-06T09:14:44;5.28;;;2.88;;
30235;SDS011;17048;53.092;8.746;2023-08-06T09:17:14;3.55;;;2.60;;
30235;SDS011;17048;53.092;8.746;2023-08-06T09:19:47;4.68;;;2.30;;
30235;SDS011;17048;53.092;8.746;2023-08-06T09:22:33;4.25;;;2.50;;
30235;SDS011;17048;53.092;8.746;2023-08-06T09:25:21;3.25;;;2.10;;
30235;SDS011;17048;53.092;8.746;2023-08-06T09:38:56;1.80;;;1.40;;
30235;SDS011;17048;53.092;8.746;2023-08-06T09:41:29;3.60;;;1.55;;
30235;SDS011;17048;53.092;8.746;2023-08-06T09:44:15;1.58;;;1.08;;
30235;SDS011;17048;53.092;8.746;2023-08-06T09:47:03;2.25;;;1.20;;
30235;SDS011;17048;53.092;8.746;2023-08-06T09:49:44;3.40;;;1.48;;
30235;SDS011;17048;53.092;8.746;2023-08-06T09:52:26;2.75;;;1.30;;
30235;SDS011;17048;53.092;8.746;2023-08-06T09:55:08;2.00;;;1.30;;
30235;SDS011;17048;53.092;8.746;2023-08-06T09:57:55;2.75;;;1.55;;
30235;SDS011;17048;53.092;8.746;2023-08-06T10:00:37;2.33;;;1.50;;
30235;SDS011;17048;53.092;8.746;2023-08-06T10:03:28;1.48;;;1.00;;
30235;SDS011;17048;53.092;8.746;2023-08-06T10:06:13;1.60;;;1.00;;
30235;SDS011;17048;53.092;8.746;2023-08-06T10:08:57;1.38;;;0.98;;
30235;SDS011;17048;53.092;8.746;2023-08-06T10:11:55;0.80;;;0.80;;
30235;SDS011;17048;53.092;8.746;2023-08-06T10:14:40;2.00;;;1.10;;
30235;SDS011;17048;53.092;8.746;2023-08-06T10:17:29;1.33;;;1.08;;
30235;SDS011;17048;53.092;8.746;2023-08-06T10:20:25;2.08;;;1.10;;
30235;SDS011;17048;53.092;8.746;2023-08-06T10:23:35;3.28;;;1.00;;
30235;SDS011;17048;53.092;8.746;2023-08-06T10:26:19;1.52;;;1.20;;
30235;SDS011;17048;53.092;8.746;2023-08-06T10:29:36;2.38;;;1.08;;
30235;SDS011;17048;53.092;8.746;2023-08-06T10:35:02;1.58;;;1.10;;
30235;SDS011;17048;53.092;8.746;2023-08-06T10:37:46;2.03;;;1.23;;
30235;SDS011;17048;53.092;8.746;2023-08-06T10:40:23;2.25;;;1.10;;
30235;SDS011;17048;53.092;8.746;2023-08-06T10:43:11;2.55;;;0.85;;
30235;SDS011;17048;53.092;8.746;2023-08-06T10:46:10;3.30;;;1.00;;
30235;SDS011;17048;53.092;8.746;2023-08-06T10:49:15;1.83;;;1.33;;
30235;SDS011;17048;53.092;8.746;2023-08-06T10:52:09;1.35;;;1.15;;
30235;SDS011;17048;53.092;8.746;2023-08-06T10:54:58;1.20;;;1.00;;
30235;SDS011;17048;53.092;8.746;2023-08-06T10:57:53;1.67;;;1.10;;
30235;SDS011;17048;53.092;8.746;2023-08-06T11:00:52;2.33;;;0.93;;
30235;SDS011;17048;53.092;8.746;2023-08-06T11:03:34;1.80;;;0.80;;
30235;SDS011;17048;53.092;8.746;2023-08-06T11:06:31;1.77;;;0.80;;
30235;SDS011;17048;53.092;8.746;2023-08-06T11:09:16;1.20;;;1.00;;
30235;SDS011;17048;53.092;8.746;2023-08-06T11:12:27;2.28;;;1.05;;
30235;SDS011;17048;53.092;8.746;2023-08-06T11:15:09;1.45;;;0.90;;
30235;SDS011;17048;53.092;8.746;2023-08-06T11:17:58;1.35;;;0.80;;
30235;SDS011;17048;53.092;8.746;2023-08-06T11:20:50;1.00;;;0.80;;
30235;SDS011;17048;53.092;8.746;2023-08-06T11:23:51;1.83;;;0.70;;
30235;SDS011;17048;53.092;8.746;2023-08-06T11:26:36;0.93;;;0.70;;
30235;SDS011;17048;53.092;8.746;2023-08-06T11:29:17;1.52;;;0.60;;
30235;SDS011;17048;53.092;8.746;2023-08-06T11:32:17;1.38;;;0.60;;
30235;SDS011;17048;53.092;8.746;2023-08-06T11:34:57;0.90;;;0.82;;
30235;SDS011;17048;53.092;8.746;2023-08-06T11:37:43;1.65;;;0.60;;
30235;SDS011;17048;53.092;8.746;2023-08-06T11:40:27;2.00;;;0.98;;
30235;SDS011;17048;53.092;8.746;2023-08-06T11:43:08;1.88;;;0.77;;
30235;SDS011;17048;53.092;8.746;2023-08-06T11:45:49;1.98;;;0.95;;
30235;SDS011;17048;53.092;8.746;2023-08-06T11:48:28;1.27;;;0.85;;
30235;SDS011;17048;53.092;8.746;2023-08-06T11:50:57;2.42;;;0.80;;
30235;SDS011;17048;53.092;8.746;2023-08-06T11:53:41;0.95;;;0.82;;
30235;SDS011;17048;53.092;8.746;2023-08-06T11:56:11;1.35;;;0.52;;
30235;SDS011;17048;53.092;8.746;2023-08-06T11:58:51;1.42;;;0.70;;
30235;SDS011;17048;53.092;8.746;2023-08-06T12:01:32;1.85;;;0.70;;
30235;SDS011;17048;53.092;8.746;2023-08-06T12:04:14;2.00;;;0.80;;
30235;SDS011;17048;53.092;8.746;2023-08-06T12:07:04;1.55;;;1.00;;
30235;SDS011;17048;53.092;8.746;2023-08-06T12:09:47;0.95;;;0.85;;
30235;SDS011;17048;53.092;8.746;2023-08-06T12:12:28;1.35;;;0.70;;
30235;SDS011;17048;53.092;8.746;2023-08-06T12:15:17;1.70;;;1.00;;
30235;SDS011;17048;53.092;8.746;2023-08-06T12:18:00;1.67;;;0.85;;
30235;SDS011;17048;53.092;8.746;2023-08-06T12:20:41;1.58;;;0.85;;
30235;SDS011;17048;53.092;8.746;2023-08-06T12:23:22;1.40;;;0.82;;
30235;SDS011;17048;53.092;8.746;2023-08-06T12:26:04;1.30;;;0.88;;
30235;SDS011;17048;53.092;8.746;2023-08-06T12:28:52;1.55;;;1.08;;
30235;SDS011;17048;53.092;8.746;2023-08-06T12:31:37;1.30;;;0.80;;
30235;SDS011;17048;53.092;8.746;2023-08-06T12:34:33;0.90;;;0.73;;
30235;SDS011;17048;53.092;8.746;2023-08-06T12:37:15;1.13;;;0.70;;
30235;SDS011;17048;53.092;8.746;2023-08-06T12:39:56;1.35;;;0.60;;
30235;SDS011;17048;53.092;8.746;2023-08-06T12:42:57;1.83;;;0.80;;
30235;SDS011;17048;53.092;8.746;2023-08-06T12:45:39;1.52;;;1.10;;
30235;SDS011;17048;53.092;8.746;2023-08-06T12:48:20;1.35;;;0.90;;
30235;SDS011;17048;53.092;8.746;2023-08-06T12:51:06;1.52;;;1.00;;
30235;SDS011;17048;53.092;8.746;2023-08-06T12:53:58;0.90;;;0.70;;
30235;SDS011;17048;53.092;8.746;2023-08-06T12:56:46;5.13;;;1.40;;
30235;SDS011;17048;53.092;8.746;2023-08-06T12:59:29;2.38;;;1.10;;
30235;SDS011;17048;53.092;8.746;2023-08-06T13:02:09;2.05;;;1.38;;
30235;SDS011;17048;53.092;8.746;2023-08-06T13:04:57;3.28;;;1.20;;
30235;SDS011;17048;53.092;8.746;2023-08-06T13:07:47;2.15;;;1.20;;
30235;SDS011;17048;53.092;8.746;2023-08-06T13:10:28;3.90;;;1.30;;
30235;SDS011;17048;53.092;8.746;2023-08-06T13:13:11;3.75;;;1.30;;
30235;SDS011;17048;53.092;8.746;2023-08-06T13:15:56;2.22;;;1.30;;
30235;SDS011;17048;53.092;8.746;2023-08-06T13:18:38;1.35;;;1.25;;
30235;SDS011;17048;53.092;8.746;2023-08-06T13:21:22;1.60;;;1.50;;
30235;SDS011;17048;53.092;8.746;2023-08-06T13:24:05;1.67;;;1.20;;
30235;SDS011;17048;53.092;8.746;2023-08-06T13:26:48;7.70;;;1.35;;
30235;SDS011;17048;53.092;8.746;2023-08-06T13:29:30;2.17;;;1.25;;
30235;SDS011;17048;53.092;8.746;2023-08-06T13:32:13;2.70;;;1.38;;
30235;SDS011;17048;53.092;8.746;2023-08-06T13:34:56;2.20;;;1.23;;
30235;SDS011;17048;53.092;8.746;2023-08-06T13:37:37;5.60;;;1.40;;
30235;SDS011;17048;53.092;8.746;2023-08-06T13:40:24;1.98;;;1.30;;
30235;SDS011;17048;53.092;8.746;2023-08-06T13:43:28;2.13;;;1.20;;
30235;SDS011;17048;53.092;8.746;2023-08-06T13:46:12;1.42;;;1.10;;
30235;SDS011;17048;53.092;8.746;2023-08-06T13:55:44;3.83;;;1.13;;
30235;SDS011;17048;53.092;8.746;2023-08-06T13:58:41;3.60;;;1.27;;
30235;SDS011;17048;53.092;8.746;2023-08-06T14:01:23;2.20;;;1.20;;
30235;SDS011;17048;53.092;8.746;2023-08-06T14:07:14;2.88;;;1.20;;
30235;SDS011;17048;53.092;8.746;2023-08-06T14:10:05;2.03;;;1.30;;
30235;SDS011;17048;53.092;8.746;2023-08-06T14:12:46;2.08;;;1.50;;
30235;SDS011;17048;53.092;8.746;2023-08-06T14:15:34;2.10;;;1.00;;
30235;SDS011;17048;53.092;8.746;2023-08-06T14:18:26;2.17;;;0.80;;
30235;SDS011;17048;53.092;8.746;2023-08-06T14:21:13;3.50;;;1.35;;
30235;SDS011;17048;53.092;8.746;2023-08-06T14:23:54;2.28;;;1.20;;
30235;SDS011;17048;53.092;8.746;2023-08-06T14:26:55;2.75;;;1.30;;
30235;SDS011;17048;53.092;8.746;2023-08-06T14:29:40;0.93;;;0.93;;
30235;SDS011;17048;53.092;8.746;2023-08-06T14:35:59;2.15;;;1.00;;
30235;SDS011;17048;53.092;8.746;2023-08-06T14:41:30;2.13;;;1.20;;
30235;SDS011;17048;53.092;8.746;2023-08-06T14:47:15;2.75;;;1.30;;
30235;SDS011;17048;53.092;8.746;2023-08-06T14:49:59;2.33;;;1.20;;
30235;SDS011;17048;53.092;8.746;2023-08-06T14:52:50;2.97;;;1.25;;
30235;SDS011;17048;53.092;8.746;2023-08-06T14:55:34;1.67;;;1.20;;
30235;SDS011;17048;53.092;8.746;2023-08-06T15:01:25;4.18;;;1.30;;
30235;SDS011;17048;53.092;8.746;2023-08-06T15:04:11;4.10;;;1.47;;
30235;SDS011;17048;53.092;8.746;2023-08-06T15:06:59;1.90;;;1.38;;
30235;SDS011;17048;53.092;8.746;2023-08-06T15:09:44;2.90;;;1.42;;
30235;SDS011;17048;53.092;8.746;2023-08-06T15:12:25;3.38;;;1.10;;
30235;SDS011;17048;53.092;8.746;2023-08-06T15:15:10;3.03;;;1.75;;
30235;SDS011;17048;53.092;8.746;2023-08-06T15:17:59;3.97;;;1.30;;
30235;SDS011;17048;53.092;8.746;2023-08-06T15:27:18;2.10;;;1.58;;
30235;SDS011;17048;53.092;8.746;2023-08-06T15:30:10;3.80;;;1.42;;
30235;SDS011;17048;53.092;8.746;2023-08-06T15:32:54;4.68;;;1.60;;
30235;SDS011;17048;53.092;8.746;2023-08-06T15:35:50;4.13;;;1.48;;
30235;SDS011;17048;53.092;8.746;2023-08-06T15:38:37;4.38;;;1.58;;
30235;SDS011;17048;53.092;8.746;2023-08-06T15:44:25;3.10;;;1.60;;
30235;SDS011;17048;53.092;8.746;2023-08-06T15:54:08;4.18;;;1.60;;
30235;SDS011;17048;53.092;8.746;2023-08-06T15:56:52;2.22;;;1.42;;
30235;SDS011;17048;53.092;8.746;2023-08-06T16:02:15;4.15;;;1.73;;
30235;SDS011;17048;53.092;8.746;2023-08-06T16:07:48;4.60;;;1.92;;
30235;SDS011;17048;53.092;8.746;2023-08-06T16:10:29;2.95;;;1.58;;
30235;SDS011;17048;53.092;8.746;2023-08-06T16:19:06;3.55;;;1.92;;
30235;SDS011;17048;53.092;8.746;2023-08-06T16:21:54;2.78;;;1.77;;
30235;SDS011;17048;53.092;8.746;2023-08-06T16:24:49;3.83;;;1.95;;
30235;SDS011;17048;53.092;8.746;2023-08-06T16:27:34;3.58;;;1.85;;
30235;SDS011;17048;53.092;8.746;2023-08-06T16:30:19;2.83;;;2.20;;
30235;SDS011;17048;53.092;8.746;2023-08-06T16:33:01;3.17;;;2.28;;
30235;SDS011;17048;53.092;8.746;2023-08-06T16:39:00;4.07;;;2.25;;
30235;SDS011;17048;53.092;8.746;2023-08-06T16:41:44;8.00;;;2.65;;
30235;SDS011;17048;53.092;8.746;2023-08-06T16:44:29;4.03;;;2.05;;
30235;SDS011;17048;53.092;8.746;2023-08-06T16:47:15;3.92;;;2.22;;
30235;SDS011;17048;53.092;8.746;2023-08-06T16:50:04;4.30;;;2.80;;
30235;SDS011;17048;53.092;8.746;2023-08-06T16:52:46;4.20;;;2.67;;
30235;SDS011;17048;53.092;8.746;2023-08-06T16:55:32;7.90;;;2.30;;
30235;SDS011;17048;53.092;8.746;2023-08-06T16:58:12;3.00;;;1.85;;
30235;SDS011;17048;53.092;8.746;2023-08-06T17:00:57;7.18;;;2.17;;
30235;SDS011;17048;53.092;8.746;2023-08-06T17:07:09;3.28;;;2.60;;
30235;SDS011;17048;53.092;8.746;2023-08-06T17:09:50;4.93;;;1.98;;
30235;SDS011;17048;53.092;8.746;2023-08-06T17:12:32;3.25;;;2.08;;
30235;SDS011;17048;53.092;8.746;2023-08-06T17:15:15;2.15;;;1.63;;
30235;SDS011;17048;53.092;8.746;2023-08-06T17:18:01;3.73;;;1.70;;